VTPM

Mae Sot Airport

Thailand
TAF VTPM 171100Z 1712/1812 27005KT 9999 BKN030 TEMPO 1712/1718 VRB15G25KT 5000 TSRA FEW025CB BKN030
Issued Valid From Valid To
Aug-17 @ 11:00 UTC
(4 hours ago)
Aug-17 @ 12:00 UTC
(3 hours ago)
Aug-18 @ 12:00 UTC
(in 21 hours)
Aug-17 @ 12:00 to Aug-18 @ 12:00
TAF VTPM 171100Z 1712/1812 27005KT 9999 BKN030
Wind Visibility Clouds
270° at 5 knots 10,000+ meters
  • Broken at 3,000' AGL
Temporary Aug-17 @ 12:00 to Aug-17 @ 18:00
TEMPO 1712/1718 VRB15G25KT 5000 TSRA FEW025CB BKN030
Wind Visibility Clouds Conditions
Variable at 15 knots
 Gusting to 25 knots
5,005 meters
  • Few at 2,500' AGL
  • Broken at 3,000' AGL
  • Thunderstorm
  • Rain
TAF VTPM 171100Z 1712/1812 27005KT 9999 BKN030 TEMPO 1712/1718 VRB15G25KT 5000 TSRA FEW025CB BKN030
Issued Aug-17 @ 11:00 UTC
(4 hours ago)
Valid From Aug-17 @ 12:00 UTC
(3 hours ago)
Valid To Aug-18 @ 12:00 UTC
(in 21 hours)
Aug-17 @ 12:00 - Aug-18 @ 12:00
Wind Visibility
270° at 5 knots 10,000+ meters
Clouds
  • Broken at 3,000' AGL
Temporary Aug-17 @ 12:00 - Aug-17 @ 18:00
Wind Visibility
Variable at 15 knots
 Gusting to 25 knots
5,005 meters
Clouds
  • Few at 2,500' AGL
  • Broken at 3,000' AGL
Conditions
  • Thunderstorm
  • Rain